createdAt,value
2018-09-04T00:01:00.319Z,99849.00
2018-09-04T00:03:27.885Z,99855.00
2018-09-04T00:05:55.971Z,99852.00
2018-09-04T00:08:23.542Z,99852.00
2018-09-04T00:10:51.099Z,99844.00
2018-09-04T00:13:18.880Z,99839.00
2018-09-04T00:15:46.420Z,99840.00
2018-09-04T00:18:13.966Z,99837.00
2018-09-04T00:20:41.671Z,99836.00
2018-09-04T00:23:09.349Z,99836.00
2018-09-04T00:25:36.954Z,99838.00
2018-09-04T00:28:05.278Z,99840.00
2018-09-04T00:30:32.945Z,99833.00
2018-09-04T00:33:00.755Z,99832.00
2018-09-04T00:35:28.593Z,99836.00
2018-09-04T00:37:56.203Z,99836.00
2018-09-04T00:40:23.782Z,99833.00
2018-09-04T00:42:51.793Z,99838.00
2018-09-04T00:45:19.378Z,99833.00
2018-09-04T00:47:46.918Z,99836.00
2018-09-04T00:50:14.670Z,99830.00
2018-09-04T00:52:43.409Z,99836.00
2018-09-04T00:55:11.166Z,99838.00
2018-09-04T00:57:39.335Z,99832.00
2018-09-04T01:00:07.005Z,99830.00
2018-09-04T01:02:34.607Z,99832.00
2018-09-04T01:05:02.231Z,99828.00
2018-09-04T01:07:29.827Z,99828.00
2018-09-04T01:09:57.392Z,99832.00
2018-09-04T01:12:25.196Z,99830.00
2018-09-04T01:14:55.228Z,99838.00
2018-09-04T01:17:23.240Z,99838.00
2018-09-04T01:19:51.121Z,99837.00
2018-09-04T01:22:18.700Z,99840.00
2018-09-04T01:24:46.261Z,99840.00
2018-09-04T01:27:14.406Z,99842.00
2018-09-04T01:29:41.972Z,99841.00
2018-09-04T01:32:09.568Z,99840.00
2018-09-04T01:34:37.172Z,99839.00
2018-09-04T01:37:05.100Z,99836.00
2018-09-04T01:39:32.673Z,99840.00
2018-09-04T01:42:00.259Z,99838.00
2018-09-04T01:44:28.349Z,99849.00
2018-09-04T01:46:55.907Z,99844.00
2018-09-04T01:49:23.440Z,99844.00
2018-09-04T01:51:51.525Z,99840.00
2018-09-04T01:54:18.933Z,99845.00
2018-09-04T01:56:46.499Z,99846.00
2018-09-04T01:59:14.316Z,99841.00
2018-09-04T02:01:41.930Z,99846.00
2018-09-04T02:04:09.694Z,99846.00
2018-09-04T02:06:37.516Z,99844.00
2018-09-04T02:09:06.043Z,99845.00
2018-09-04T02:11:33.621Z,99847.00
2018-09-04T02:14:01.325Z,99844.00
2018-09-04T02:16:29.181Z,99845.00
2018-09-04T02:18:56.740Z,99844.00
2018-09-04T02:21:24.320Z,99847.00
2018-09-04T02:23:52.198Z,99853.00
2018-09-04T02:26:19.770Z,99852.00
2018-09-04T02:28:47.405Z,99859.00
2018-09-04T02:31:15.222Z,99854.00
2018-09-04T02:33:42.747Z,99861.00
2018-09-04T02:36:10.277Z,99865.00
2018-09-04T02:38:38.224Z,99867.00
2018-09-04T02:41:06.084Z,99876.00
2018-09-04T02:43:33.789Z,99873.00
2018-09-04T02:46:01.726Z,99873.00
2018-09-04T02:48:29.305Z,99880.00
2018-09-04T02:50:57.258Z,99878.00
2018-09-04T02:53:24.771Z,99876.00
2018-09-04T02:55:52.324Z,99877.00
2018-09-04T02:58:20.270Z,99879.00
2018-09-04T03:00:47.851Z,99883.00
2018-09-04T03:03:15.412Z,99884.00
2018-09-04T03:05:43.783Z,99888.00
2018-09-04T03:08:11.541Z,99886.00
2018-09-04T03:10:39.097Z,99886.00
2018-09-04T03:13:06.667Z,99881.00
2018-09-04T03:15:34.189Z,99878.00
2018-09-04T03:18:01.906Z,99880.00
2018-09-04T03:20:29.777Z,99877.00
2018-09-04T03:22:57.400Z,99877.00
2018-09-04T03:25:24.884Z,99875.00
2018-09-04T03:27:52.580Z,99871.00
2018-09-04T03:30:20.163Z,99875.00
2018-09-04T03:32:47.904Z,99875.00
2018-09-04T03:35:15.522Z,99869.00
2018-09-04T03:37:43.239Z,99867.00
2018-09-04T03:40:11.249Z,99876.00
2018-09-04T03:42:38.869Z,99871.00
2018-09-04T03:45:06.541Z,99877.00
2018-09-04T03:47:34.837Z,99875.00
2018-09-04T03:50:02.468Z,99877.00
2018-09-04T03:52:30.057Z,99877.00
2018-09-04T03:54:58.373Z,99877.00
2018-09-04T03:57:25.924Z,99880.00
2018-09-04T03:59:53.703Z,99880.00
2018-09-04T04:02:21.248Z,99882.00
2018-09-04T04:04:55.773Z,99882.00
2018-09-04T04:07:23.366Z,99880.00
2018-09-04T04:09:50.924Z,99884.00
2018-09-04T04:12:18.668Z,99883.00
2018-09-04T04:14:46.946Z,99885.00
2018-09-04T04:17:14.529Z,99891.00
2018-09-04T04:19:42.415Z,99888.00
2018-09-04T04:22:10.475Z,99892.00
2018-09-04T04:24:38.023Z,99895.00
2018-09-04T04:27:05.661Z,99893.00
2018-09-04T04:29:33.653Z,99895.00
2018-09-04T04:32:01.228Z,99893.00
2018-09-04T04:34:28.800Z,99892.00
2018-09-04T04:36:56.643Z,99899.00
2018-09-04T04:39:24.287Z,99895.00
2018-09-04T04:41:52.016Z,99896.00
2018-09-04T04:44:19.739Z,99896.00
2018-09-04T04:46:47.262Z,99900.00
2018-09-04T04:49:14.792Z,99902.00
2018-09-04T04:51:42.908Z,99904.00
2018-09-04T04:54:10.463Z,99903.00
2018-09-04T04:56:39.373Z,99905.00
2018-09-04T04:59:07.539Z,99907.00
2018-09-04T05:01:35.147Z,99907.00
2018-09-04T05:04:02.752Z,99908.00
2018-09-04T05:06:30.518Z,99909.00
2018-09-04T05:08:58.032Z,99906.00
2018-09-04T05:11:25.593Z,99911.00
2018-09-04T05:13:53.828Z,99914.00
2018-09-04T05:16:21.501Z,99917.00
2018-09-04T05:18:49.091Z,99921.00
2018-09-04T05:21:16.823Z,99920.00
2018-09-04T05:23:44.401Z,99918.00
2018-09-04T05:26:12.012Z,99926.00
2018-09-04T05:28:39.945Z,99928.00
2018-09-04T05:31:07.682Z,99927.00
2018-09-04T05:33:39.362Z,99929.00
2018-09-04T05:36:07.240Z,99934.00
2018-09-04T05:38:35.540Z,99931.00
2018-09-04T05:41:03.062Z,99933.00
2018-09-04T05:43:37.508Z,99933.00
2018-09-04T05:46:12.009Z,99926.00
2018-09-04T05:48:39.803Z,99931.00
2018-09-04T05:51:07.363Z,99934.00
2018-09-04T05:53:34.931Z,99936.00
2018-09-04T05:56:02.799Z,99934.00
2018-09-04T05:58:30.349Z,99938.00
2018-09-04T06:00:59.967Z,99930.00
2018-09-04T06:03:27.881Z,99930.00
2018-09-04T06:05:55.417Z,99936.00
2018-09-04T06:08:23.076Z,99929.00
2018-09-04T06:10:50.867Z,99935.00
2018-09-04T06:13:18.933Z,99934.00
2018-09-04T06:15:46.479Z,99934.00
2018-09-04T06:18:14.319Z,99944.00
2018-09-04T06:20:42.147Z,99940.00
2018-09-04T06:23:10.025Z,99938.00
2018-09-04T06:25:37.894Z,99932.00
2018-09-04T06:28:05.432Z,99927.00
2018-09-04T06:30:33.643Z,99931.00
2018-09-04T06:33:01.195Z,99929.00
2018-09-04T06:35:28.773Z,99934.00
2018-09-04T06:37:56.477Z,99933.00
2018-09-04T06:40:24.071Z,99936.00
2018-09-04T06:42:51.632Z,99942.00
2018-09-04T06:45:19.519Z,99940.00
2018-09-04T06:47:47.554Z,99935.00
2018-09-04T06:50:15.298Z,99930.00
2018-09-04T06:52:43.460Z,99935.00
2018-09-04T06:55:11.112Z,99937.00
2018-09-04T06:57:38.750Z,99933.00
2018-09-04T07:00:08.439Z,99932.00
2018-09-04T07:02:36.220Z,99935.00
2018-09-04T07:05:04.072Z,99942.00
2018-09-04T07:07:31.630Z,99946.00
2018-09-04T07:09:59.685Z,99948.00
2018-09-04T07:12:27.275Z,99952.00
2018-09-04T07:14:54.894Z,99949.00
2018-09-04T07:17:22.797Z,99945.00
2018-09-04T07:19:50.368Z,99948.00
2018-09-04T07:22:18.001Z,99947.00
2018-09-04T07:24:45.800Z,99947.00
2018-09-04T07:27:13.365Z,99950.00
2018-09-04T07:29:40.955Z,99946.00
2018-09-04T07:32:08.599Z,99944.00
2018-09-04T07:34:36.154Z,99939.00
2018-09-04T07:37:04.319Z,99935.00
2018-09-04T07:39:31.902Z,99935.00
2018-09-04T07:41:59.874Z,99937.00
2018-09-04T07:44:27.371Z,99938.00
2018-09-04T07:46:55.134Z,99935.00
2018-09-04T07:49:22.771Z,99930.00
2018-09-04T07:51:50.318Z,99939.00
2018-09-04T07:54:18.051Z,99939.00
2018-09-04T07:56:45.595Z,99938.00
2018-09-04T07:59:12.849Z,99938.00
2018-09-04T08:01:40.447Z,99943.00
2018-09-04T08:04:08.043Z,99941.00
2018-09-04T08:06:35.633Z,99942.00
2018-09-04T08:09:04.747Z,99934.00
2018-09-04T08:11:32.365Z,99936.00
2018-09-04T08:13:59.921Z,99927.00
2018-09-04T08:16:27.839Z,99928.00
2018-09-04T08:18:55.379Z,99935.00
2018-09-04T08:21:23.181Z,99932.00
2018-09-04T08:23:50.729Z,99919.00
2018-09-04T08:26:18.314Z,99918.00
2018-09-04T08:28:46.079Z,99919.00
2018-09-04T08:31:13.626Z,99922.00
2018-09-04T08:33:41.205Z,99915.00
2018-09-04T08:36:08.755Z,99919.00
2018-09-04T08:38:41.988Z,99915.00
2018-09-04T08:41:09.824Z,99913.00
2018-09-04T08:43:37.689Z,99915.00
2018-09-04T08:46:05.700Z,99913.00
2018-09-04T08:48:33.234Z,99916.00
2018-09-04T08:51:00.800Z,99913.00
2018-09-04T08:53:28.934Z,99904.00
2018-09-04T08:55:56.385Z,99903.00
2018-09-04T08:58:23.947Z,99908.00
2018-09-04T09:00:52.148Z,99911.00
2018-09-04T09:03:19.599Z,99906.00
2018-09-04T09:05:47.151Z,99908.00
2018-09-04T09:08:16.107Z,99907.00
2018-09-04T09:10:43.672Z,99906.00
2018-09-04T09:13:11.201Z,99904.00
2018-09-04T09:15:39.144Z,99901.00
2018-09-04T09:18:06.789Z,99907.00
2018-09-04T09:20:34.328Z,99903.00
2018-09-04T09:23:02.216Z,99901.00
2018-09-04T09:25:29.774Z,99903.00
2018-09-04T09:27:58.512Z,99905.00
2018-09-04T09:30:26.345Z,99901.00
2018-09-04T09:32:53.860Z,99901.00
2018-09-04T09:35:21.415Z,99900.00
2018-09-04T09:37:48.965Z,99896.00
2018-09-04T09:40:16.520Z,99900.00
2018-09-04T09:42:44.105Z,99891.00
2018-09-04T09:45:11.694Z,99889.00
2018-09-04T09:47:45.121Z,99891.00
2018-09-04T09:50:12.903Z,99892.00
2018-09-04T09:52:40.499Z,99892.00
2018-09-04T09:55:09.192Z,99893.00
2018-09-04T09:57:37.155Z,99892.00
2018-09-04T10:00:05.693Z,99893.00
2018-09-04T10:02:39.444Z,99887.00
2018-09-04T10:05:06.998Z,99882.00
2018-09-04T10:07:34.600Z,99882.00
2018-09-04T10:10:02.220Z,99879.00
2018-09-04T10:12:29.789Z,99882.00
2018-09-04T10:14:57.338Z,99879.00
2018-09-04T10:17:25.225Z,99872.00
2018-09-04T10:19:53.004Z,99868.00
2018-09-04T10:22:20.568Z,99866.00
2018-09-04T10:24:48.444Z,99858.00
2018-09-04T10:27:15.987Z,99863.00
2018-09-04T10:29:43.573Z,99864.00
2018-09-04T10:32:11.441Z,99864.00
2018-09-04T10:34:39.026Z,99861.00
2018-09-04T10:37:06.572Z,99867.00
2018-09-04T10:39:39.873Z,99861.00
2018-09-04T10:42:07.432Z,99856.00
2018-09-04T10:44:35.190Z,99854.00
2018-09-04T10:47:03.000Z,99857.00
2018-09-04T10:49:30.588Z,99850.00
2018-09-04T10:51:58.515Z,99854.00
2018-09-04T10:54:26.080Z,99847.00
2018-09-04T10:56:53.642Z,99847.00
2018-09-04T10:59:21.520Z,99844.00
2018-09-04T11:01:49.079Z,99845.00
2018-09-04T11:04:16.634Z,99847.00
2018-09-04T11:06:44.518Z,99843.00
2018-09-04T11:09:12.080Z,99839.00
2018-09-04T11:11:40.937Z,99834.00
2018-09-04T11:14:08.611Z,99839.00
2018-09-04T11:16:36.152Z,99839.00
2018-09-04T11:19:03.742Z,99843.00
2018-09-04T11:21:31.396Z,99846.00
2018-09-04T11:23:58.746Z,99840.00
2018-09-04T11:26:26.293Z,99840.00
2018-09-04T11:28:58.008Z,99840.00
2018-09-04T11:31:25.519Z,99836.00
2018-09-04T11:33:53.059Z,99836.00
2018-09-04T11:36:20.720Z,99834.00
2018-09-04T11:38:48.275Z,99831.00
2018-09-04T11:41:16.251Z,99829.00
2018-09-04T11:43:43.821Z,99825.00
2018-09-04T11:46:11.459Z,99827.00
2018-09-04T11:48:39.969Z,99832.00
2018-09-04T11:51:10.169Z,99827.00
2018-09-04T11:53:37.695Z,99827.00
2018-09-04T11:56:05.851Z,99833.00
2018-09-04T11:58:33.672Z,99831.00
2018-09-04T12:01:03.164Z,99843.00
2018-09-04T12:03:30.831Z,99838.00
2018-09-04T12:05:58.464Z,99839.00
2018-09-04T12:08:26.629Z,99844.00
2018-09-04T12:10:54.221Z,99839.00
2018-09-04T12:13:28.123Z,99839.00
2018-09-04T12:15:55.696Z,99838.00
2018-09-04T12:18:23.234Z,99840.00
2018-09-04T12:20:52.595Z,99839.00
2018-09-04T12:23:20.321Z,99829.00
2018-09-04T12:25:49.286Z,99828.00
2018-09-04T12:28:17.188Z,99823.00
2018-09-04T12:30:44.963Z,99821.00
2018-09-04T12:33:12.584Z,99822.00
2018-09-04T12:35:40.481Z,99828.00
2018-09-04T12:38:09.725Z,99826.00
2018-09-04T12:40:37.325Z,99833.00
2018-09-04T12:43:05.441Z,99829.00
2018-09-04T12:45:39.567Z,99826.00
2018-09-04T12:48:07.476Z,99825.00
2018-09-04T12:50:35.612Z,99818.00
2018-09-04T12:53:04.192Z,99812.00
2018-09-04T12:55:31.891Z,99811.00
2018-09-04T12:57:59.457Z,99810.00
2018-09-04T13:00:27.297Z,99817.00
2018-09-04T13:02:54.884Z,99809.00
2018-09-04T13:05:22.848Z,99812.00
2018-09-04T13:07:50.395Z,99811.00
2018-09-04T13:10:18.032Z,99812.00
2018-09-04T13:12:45.780Z,99813.00
2018-09-04T13:15:14.215Z,99812.00
2018-09-04T13:17:41.825Z,99807.00
2018-09-04T13:20:09.448Z,99805.00
2018-09-04T13:22:37.225Z,99805.00
2018-09-04T13:25:04.894Z,99802.00
2018-09-04T13:27:32.874Z,99804.00
2018-09-04T13:30:00.463Z,99800.00
2018-09-04T13:32:28.092Z,99795.00
2018-09-04T13:34:55.965Z,99797.00
2018-09-04T13:37:24.052Z,99799.00
2018-09-04T13:39:57.247Z,99789.00
2018-09-04T13:42:26.427Z,99797.00
2018-09-04T13:44:54.755Z,99794.00
2018-09-04T13:47:24.157Z,99790.00
2018-09-04T13:49:52.012Z,99790.00
2018-09-04T13:52:19.694Z,99792.00
2018-09-04T13:54:47.428Z,99792.00
2018-09-04T13:57:15.090Z,99787.00
2018-09-04T13:59:42.841Z,99783.00
2018-09-04T14:02:10.602Z,99788.00
2018-09-04T14:04:38.192Z,99786.00
2018-09-04T14:07:05.445Z,99789.00
2018-09-04T14:09:33.272Z,99789.00
2018-09-04T14:12:02.675Z,99793.00
2018-09-04T14:14:31.077Z,99793.00
2018-09-04T14:16:59.012Z,99794.00
2018-09-04T14:19:26.664Z,99791.00
2018-09-04T14:21:54.187Z,99792.00
2018-09-04T14:24:21.998Z,99789.00
2018-09-04T14:26:49.637Z,99786.00
2018-09-04T14:29:53.157Z,99799.00
2018-09-04T14:31:44.513Z,99802.00
2018-09-04T14:34:12.104Z,99802.00
2018-09-04T14:36:39.748Z,99797.00
2018-09-04T14:39:07.609Z,99793.00
2018-09-04T14:41:35.462Z,99790.00
2018-09-04T14:44:03.065Z,99789.00
2018-09-04T14:49:42.266Z,99799.00
2018-09-04T14:52:48.020Z,99802.00
2018-09-04T14:55:54.448Z,99803.00
2018-09-04T14:59:01.089Z,99797.00
2018-09-04T15:02:06.684Z,99796.00
2018-09-04T15:05:12.573Z,99795.00
2018-09-04T15:08:18.382Z,99798.00
2018-09-04T15:11:24.927Z,99794.00
2018-09-04T15:14:31.335Z,99794.00
2018-09-04T15:17:37.023Z,99798.00
2018-09-04T15:20:43.160Z,99806.00
2018-09-04T15:23:48.696Z,99804.00
2018-09-04T15:26:54.094Z,99798.00
2018-09-04T15:29:59.643Z,99811.00
2018-09-04T15:33:06.293Z,99807.00
2018-09-04T15:36:12.656Z,99809.00
2018-09-04T15:39:19.388Z,99808.00
2018-09-04T15:42:25.082Z,99805.00
2018-09-04T15:45:31.612Z,99813.00
2018-09-04T15:48:37.769Z,99811.00
2018-09-04T15:51:44.296Z,99812.00
2018-09-04T15:54:49.769Z,99809.00
2018-09-04T15:57:55.781Z,99814.00
2018-09-04T16:01:02.154Z,99808.00
2018-09-04T16:04:08.492Z,99810.00
2018-09-04T16:07:15.194Z,99815.00
2018-09-04T16:10:21.263Z,99817.00
2018-09-04T16:13:27.241Z,99814.00
2018-09-04T16:16:33.467Z,99816.00
2018-09-04T16:19:39.476Z,99818.00
2018-09-04T16:22:45.432Z,99820.00
2018-09-04T16:25:51.524Z,99826.00
2018-09-04T16:28:57.934Z,99826.00
2018-09-04T16:32:04.109Z,99829.00
2018-09-04T16:35:09.957Z,99828.00
2018-09-04T16:38:16.497Z,99822.00
2018-09-04T16:41:22.763Z,99826.00
2018-09-04T16:44:28.654Z,99832.00
2018-09-04T16:47:34.920Z,99832.00
2018-09-04T16:50:40.735Z,99831.00
2018-09-04T16:53:47.068Z,99833.00
2018-09-04T16:56:53.041Z,99834.00
2018-09-04T16:59:59.436Z,99838.00
2018-09-04T17:03:05.865Z,99833.00
2018-09-04T17:06:11.598Z,99830.00
2018-09-04T17:09:17.946Z,99830.00
2018-09-04T17:12:23.855Z,99846.00
2018-09-04T17:15:29.180Z,99847.00
2018-09-04T17:18:35.964Z,99853.00
2018-09-04T17:21:41.600Z,99849.00
2018-09-04T17:24:47.421Z,99853.00
2018-09-04T17:27:53.828Z,99857.00
2018-09-04T17:31:00.021Z,99858.00
2018-09-04T17:34:06.458Z,99856.00
2018-09-04T17:37:12.548Z,99863.00
2018-09-04T17:40:18.587Z,99863.00
2018-09-04T17:43:24.958Z,99867.00
2018-09-04T17:46:31.018Z,99873.00
2018-09-04T17:49:39.000Z,99874.00
2018-09-04T17:52:45.049Z,99875.00
2018-09-04T17:55:50.896Z,99869.00
2018-09-04T17:58:56.635Z,99876.00
2018-09-04T18:02:02.694Z,99876.00
2018-09-04T18:05:08.719Z,99886.00
2018-09-04T18:08:15.120Z,99889.00
2018-09-04T18:11:20.908Z,99895.00
2018-09-04T18:14:26.672Z,99904.00
2018-09-04T18:17:32.486Z,99904.00
2018-09-04T18:20:39.165Z,99904.00
2018-09-04T18:23:45.603Z,99915.00
2018-09-04T18:26:51.500Z,99915.00
2018-09-04T18:29:58.127Z,99918.00
2018-09-04T18:33:04.301Z,99922.00
2018-09-04T18:36:10.785Z,99920.00
2018-09-04T18:39:16.392Z,99927.00
2018-09-04T18:42:23.402Z,99930.00
2018-09-04T18:46:02.406Z,99933.00
2018-09-04T18:49:08.377Z,99934.00
2018-09-04T18:52:22.078Z,99943.00
2018-09-04T18:55:28.350Z,99949.00
2018-09-04T18:58:35.269Z,99951.00
2018-09-04T19:01:41.424Z,99947.00
2018-09-04T19:04:47.231Z,99947.00
2018-09-04T19:07:53.202Z,99949.00
2018-09-04T19:10:59.354Z,99955.00
2018-09-04T19:14:05.403Z,99958.00
2018-09-04T19:17:11.873Z,99956.00
2018-09-04T19:20:18.142Z,99961.00
2018-09-04T19:23:24.668Z,99962.00
2018-09-04T19:26:30.773Z,99966.00
2018-09-04T19:29:36.335Z,99966.00
2018-09-04T19:32:41.991Z,99969.00
2018-09-04T19:35:47.841Z,99964.00
2018-09-04T19:38:54.222Z,99966.00
2018-09-04T19:42:00.544Z,99964.00
2018-09-04T19:45:06.642Z,99966.00
2018-09-04T19:48:13.085Z,99966.00
2018-09-04T19:51:19.639Z,99969.00
2018-09-04T19:54:26.395Z,99973.00
2018-09-04T19:57:32.519Z,99971.00
2018-09-04T20:00:38.348Z,99975.00
2018-09-04T20:03:44.313Z,99981.00
2018-09-04T20:06:50.524Z,99984.00
2018-09-04T20:09:56.675Z,99987.00
2018-09-04T20:13:02.892Z,99992.00
2018-09-04T20:16:09.075Z,99990.00
2018-09-04T20:19:14.712Z,100001.00
2018-09-04T20:22:21.595Z,99997.00
2018-09-04T20:25:27.713Z,100003.00
2018-09-04T20:28:34.260Z,100009.00
2018-09-04T20:31:40.023Z,100006.00
2018-09-04T20:34:45.977Z,100004.00
2018-09-04T20:37:52.050Z,100008.00
2018-09-04T20:40:57.730Z,100012.00
2018-09-04T20:44:03.820Z,100014.00
2018-09-04T20:47:10.141Z,100015.00
2018-09-04T20:50:15.982Z,100018.00
2018-09-04T20:53:22.607Z,100017.00
2018-09-04T20:56:28.496Z,100029.00
2018-09-04T20:59:52.828Z,100028.00
2018-09-04T21:03:17.081Z,100032.00
2018-09-04T21:06:41.498Z,100027.00
2018-09-04T21:09:57.009Z,100026.00
2018-09-04T21:13:03.351Z,100025.00
2018-09-04T21:16:09.076Z,100031.00
2018-09-04T21:19:15.215Z,100029.00
2018-09-04T21:22:22.467Z,100031.00
2018-09-04T21:25:28.944Z,100033.00
2018-09-04T21:28:34.472Z,100031.00
2018-09-04T21:31:40.916Z,100032.00
2018-09-04T21:34:47.075Z,100034.00
2018-09-04T21:37:53.058Z,100033.00
2018-09-04T21:40:59.537Z,100030.00
2018-09-04T21:44:05.399Z,100032.00
2018-09-04T21:47:11.046Z,100029.00
2018-09-04T21:50:16.560Z,100036.00
2018-09-04T21:53:22.946Z,100034.00
2018-09-04T21:56:29.024Z,100044.00
2018-09-04T21:59:35.096Z,100049.00
2018-09-04T22:02:40.644Z,100048.00
2018-09-04T22:05:47.107Z,100048.00
2018-09-04T22:08:52.936Z,100049.00
2018-09-04T22:11:59.347Z,100046.00
2018-09-04T22:15:05.079Z,100046.00
2018-09-04T22:18:10.978Z,100047.00
2018-09-04T22:21:17.407Z,100050.00
2018-09-04T22:24:23.814Z,100054.00
2018-09-04T22:27:30.458Z,100057.00
2018-09-04T22:30:38.574Z,100062.00
2018-09-04T22:33:44.126Z,100065.00
2018-09-04T22:36:49.749Z,100060.00
2018-09-04T22:39:56.312Z,100059.00
2018-09-04T22:43:02.880Z,100058.00
2018-09-04T22:46:09.163Z,100061.00
2018-09-04T22:49:14.961Z,100060.00
2018-09-04T22:52:21.714Z,100063.00
2018-09-04T22:55:27.470Z,100059.00
2018-09-04T22:58:33.900Z,100063.00
2018-09-04T23:01:39.801Z,100065.00
2018-09-04T23:04:38.079Z,100066.00
2018-09-04T23:07:43.763Z,100067.00
2018-09-04T23:10:49.955Z,100063.00
2018-09-04T23:13:55.941Z,100063.00
2018-09-04T23:17:01.555Z,100067.00
2018-09-04T23:26:09.142Z,100068.00
2018-09-04T23:29:15.286Z,100065.00
2018-09-04T23:32:21.441Z,100067.00
2018-09-04T23:35:27.197Z,100067.00
2018-09-04T23:38:32.961Z,100067.00
2018-09-04T23:41:39.544Z,100068.00
2018-09-04T23:44:45.749Z,100068.00
2018-09-04T23:47:51.562Z,100067.00
2018-09-04T23:50:57.331Z,100066.00
2018-09-04T23:54:03.523Z,100067.00
2018-09-04T23:57:09.493Z,100068.00
